Terminal Aerodrome Forecast
Issued by NWS

Home | Current Version | Previous Version | Text Only | Print | Product List | Glossary On
Versions: 1 2 3 4 5 6 7 8 9 10 11 12 13
000
FTUS45 KREV 211100
TAFTVL
TAF
KTVL 211120Z 2112/2212 19004KT P6SM SCT150
     FM211800 20016G26KT P6SM SCT100 BKN150
     FM220600 20020G30KT P6SM VCSH SCT050 BKN080
     FM221000 20012G20KT 5SM -RASN SCT015 BKN025 WS020/25045KT=

USA.gov is the U.S. government's official web portal to all federal, state and local government web resources and services.